sensor_id;sensor_type;location;lat;lon;timestamp;temperature;humidity
33328;DHT22;19692;52.998;9.116;2023-10-31T00:01:32;12.00;99.90
33328;DHT22;19692;52.998;9.116;2023-10-31T00:03:57;12.00;99.90
33328;DHT22;19692;52.998;9.116;2023-10-31T00:06:23;12.10;99.90
33328;DHT22;19692;52.998;9.116;2023-10-31T00:08:49;12.10;99.90
33328;DHT22;19692;52.998;9.116;2023-10-31T00:11:15;12.10;99.90
33328;DHT22;19692;52.998;9.116;2023-10-31T00:13:41;12.10;99.90
33328;DHT22;19692;52.998;9.116;2023-10-31T00:16:07;12.10;99.90
33328;DHT22;19692;52.998;9.116;2023-10-31T00:18:33;12.10;99.90
33328;DHT22;19692;52.998;9.116;2023-10-31T00:20:58;12.10;99.90
33328;DHT22;19692;52.998;9.116;2023-10-31T00:23:24;12.10;99.90
33328;DHT22;19692;52.998;9.116;2023-10-31T00:25:50;12.00;99.90
33328;DHT22;19692;52.998;9.116;2023-10-31T00:28:16;12.00;99.90
33328;DHT22;19692;52.998;9.116;2023-10-31T00:30:41;12.00;99.90
33328;DHT22;19692;52.998;9.116;2023-10-31T00:33:07;12.00;99.90
33328;DHT22;19692;52.998;9.116;2023-10-31T00:35:33;12.00;99.90
33328;DHT22;19692;52.998;9.116;2023-10-31T00:37:59;12.00;99.90
33328;DHT22;19692;52.998;9.116;2023-10-31T00:40:24;12.00;99.90
33328;DHT22;19692;52.998;9.116;2023-10-31T00:42:50;12.00;99.90
33328;DHT22;19692;52.998;9.116;2023-10-31T00:45:16;11.90;99.90
33328;DHT22;19692;52.998;9.116;2023-10-31T00:47:42;11.90;99.90
33328;DHT22;19692;52.998;9.116;2023-10-31T00:50:07;11.90;99.90
33328;DHT22;19692;52.998;9.116;2023-10-31T00:52:34;11.90;99.90
33328;DHT22;19692;52.998;9.116;2023-10-31T00:55:00;11.90;99.90
33328;DHT22;19692;52.998;9.116;2023-10-31T00:57:26;11.90;99.90
33328;DHT22;19692;52.998;9.116;2023-10-31T00:59:52;11.90;99.90
33328;DHT22;19692;52.998;9.116;2023-10-31T01:02:17;11.80;99.90
33328;DHT22;19692;52.998;9.116;2023-10-31T01:04:43;11.90;99.90
33328;DHT22;19692;52.998;9.116;2023-10-31T01:07:09;11.90;99.90
33328;DHT22;19692;52.998;9.116;2023-10-31T01:09:38;11.90;99.90
33328;DHT22;19692;52.998;9.116;2023-10-31T01:12:04;11.90;99.90
33328;DHT22;19692;52.998;9.116;2023-10-31T01:14:30;11.90;99.90
33328;DHT22;19692;52.998;9.116;2023-10-31T01:16:56;12.00;99.90
33328;DHT22;19692;52.998;9.116;2023-10-31T01:19:22;12.00;99.90
33328;DHT22;19692;52.998;9.116;2023-10-31T01:21:48;11.90;99.90
33328;DHT22;19692;52.998;9.116;2023-10-31T01:24:13;11.90;99.90
33328;DHT22;19692;52.998;9.116;2023-10-31T01:26:39;11.90;99.90
33328;DHT22;19692;52.998;9.116;2023-10-31T01:29:05;11.90;99.90
33328;DHT22;19692;52.998;9.116;2023-10-31T01:31:31;11.90;99.90
33328;DHT22;19692;52.998;9.116;2023-10-31T01:33:58;11.90;99.90
33328;DHT22;19692;52.998;9.116;2023-10-31T01:36:29;11.90;99.90
33328;DHT22;19692;52.998;9.116;2023-10-31T01:38:57;11.90;99.90
33328;DHT22;19692;52.998;9.116;2023-10-31T01:41:24;11.90;99.90
33328;DHT22;19692;52.998;9.116;2023-10-31T01:43:50;11.90;99.90
33328;DHT22;19692;52.998;9.116;2023-10-31T01:46:16;11.90;99.90
33328;DHT22;19692;52.998;9.116;2023-10-31T01:48:41;11.90;99.90
33328;DHT22;19692;52.998;9.116;2023-10-31T01:51:08;11.90;99.90
33328;DHT22;19692;52.998;9.116;2023-10-31T01:53:35;11.90;99.90
33328;DHT22;19692;52.998;9.116;2023-10-31T01:56:03;11.90;99.90
33328;DHT22;19692;52.998;9.116;2023-10-31T01:58:35;11.90;99.90
33328;DHT22;19692;52.998;9.116;2023-10-31T02:01:02;11.90;99.90
33328;DHT22;19692;52.998;9.116;2023-10-31T02:03:31;11.90;99.90
33328;DHT22;19692;52.998;9.116;2023-10-31T02:05:58;11.90;99.90
33328;DHT22;19692;52.998;9.116;2023-10-31T02:08:25;11.90;99.90
33328;DHT22;19692;52.998;9.116;2023-10-31T02:10:51;11.80;99.90
33328;DHT22;19692;52.998;9.116;2023-10-31T02:13:17;11.80;99.90
33328;DHT22;19692;52.998;9.116;2023-10-31T02:15:44;11.90;99.90
33328;DHT22;19692;52.998;9.116;2023-10-31T02:18:10;11.90;99.90
33328;DHT22;19692;52.998;9.116;2023-10-31T02:20:36;11.90;99.90
33328;DHT22;19692;52.998;9.116;2023-10-31T02:23:03;11.80;99.90
33328;DHT22;19692;52.998;9.116;2023-10-31T02:25:29;11.90;99.90
33328;DHT22;19692;52.998;9.116;2023-10-31T02:27:58;11.90;99.90
33328;DHT22;19692;52.998;9.116;2023-10-31T02:30:24;12.00;99.90
33328;DHT22;19692;52.998;9.116;2023-10-31T02:32:50;12.00;99.90
33328;DHT22;19692;52.998;9.116;2023-10-31T02:35:17;12.00;99.90
33328;DHT22;19692;52.998;9.116;2023-10-31T02:37:44;12.00;99.90
33328;DHT22;19692;52.998;9.116;2023-10-31T02:40:11;12.00;99.90
33328;DHT22;19692;52.998;9.116;2023-10-31T02:42:37;12.00;99.90
33328;DHT22;19692;52.998;9.116;2023-10-31T02:45:03;12.00;99.90
33328;DHT22;19692;52.998;9.116;2023-10-31T02:47:30;12.00;99.90
33328;DHT22;19692;52.998;9.116;2023-10-31T02:49:55;12.00;99.90
33328;DHT22;19692;52.998;9.116;2023-10-31T02:52:21;12.00;99.90
33328;DHT22;19692;52.998;9.116;2023-10-31T02:54:47;12.00;99.90
33328;DHT22;19692;52.998;9.116;2023-10-31T02:57:15;12.00;99.90
33328;DHT22;19692;52.998;9.116;2023-10-31T02:59:41;12.00;99.90
33328;DHT22;19692;52.998;9.116;2023-10-31T03:02:07;12.00;99.90
33328;DHT22;19692;52.998;9.116;2023-10-31T03:04:33;12.00;99.90
33328;DHT22;19692;52.998;9.116;2023-10-31T03:06:58;12.00;99.90
33328;DHT22;19692;52.998;9.116;2023-10-31T03:09:24;12.00;99.90
33328;DHT22;19692;52.998;9.116;2023-10-31T03:11:50;12.10;99.90
33328;DHT22;19692;52.998;9.116;2023-10-31T03:14:15;12.10;99.90
33328;DHT22;19692;52.998;9.116;2023-10-31T03:16:41;12.10;99.90
33328;DHT22;19692;52.998;9.116;2023-10-31T03:19:07;12.10;99.90
33328;DHT22;19692;52.998;9.116;2023-10-31T03:21:33;12.10;99.90
33328;DHT22;19692;52.998;9.116;2023-10-31T03:23:59;12.10;99.90
33328;DHT22;19692;52.998;9.116;2023-10-31T03:26:24;12.10;99.90
33328;DHT22;19692;52.998;9.116;2023-10-31T03:28:50;12.10;99.90
33328;DHT22;19692;52.998;9.116;2023-10-31T03:31:16;12.10;99.90
33328;DHT22;19692;52.998;9.116;2023-10-31T03:33:43;12.20;99.90
33328;DHT22;19692;52.998;9.116;2023-10-31T03:36:09;12.10;99.90
33328;DHT22;19692;52.998;9.116;2023-10-31T03:38:35;12.10;99.90
33328;DHT22;19692;52.998;9.116;2023-10-31T03:41:02;12.10;99.90
33328;DHT22;19692;52.998;9.116;2023-10-31T03:43:28;12.20;99.90
33328;DHT22;19692;52.998;9.116;2023-10-31T03:45:54;12.20;99.90
33328;DHT22;19692;52.998;9.116;2023-10-31T03:48:20;12.20;99.90
33328;DHT22;19692;52.998;9.116;2023-10-31T03:50:46;12.10;99.90
33328;DHT22;19692;52.998;9.116;2023-10-31T03:53:12;12.10;99.90
33328;DHT22;19692;52.998;9.116;2023-10-31T03:55:38;12.20;99.90
33328;DHT22;19692;52.998;9.116;2023-10-31T03:58:03;12.10;99.90
33328;DHT22;19692;52.998;9.116;2023-10-31T04:00:29;12.20;99.90
33328;DHT22;19692;52.998;9.116;2023-10-31T04:02:56;12.20;99.90
33328;DHT22;19692;52.998;9.116;2023-10-31T04:05:21;12.20;99.90
33328;DHT22;19692;52.998;9.116;2023-10-31T04:07:48;12.10;99.90
33328;DHT22;19692;52.998;9.116;2023-10-31T04:10:15;12.10;99.90
33328;DHT22;19692;52.998;9.116;2023-10-31T04:12:41;12.10;99.90
33328;DHT22;19692;52.998;9.116;2023-10-31T04:15:10;12.10;99.90
33328;DHT22;19692;52.998;9.116;2023-10-31T04:17:35;12.10;99.90
33328;DHT22;19692;52.998;9.116;2023-10-31T04:20:02;12.20;99.90
33328;DHT22;19692;52.998;9.116;2023-10-31T04:22:28;12.20;99.90
33328;DHT22;19692;52.998;9.116;2023-10-31T04:24:54;12.20;99.90
33328;DHT22;19692;52.998;9.116;2023-10-31T04:27:20;12.20;99.90
33328;DHT22;19692;52.998;9.116;2023-10-31T04:29:46;12.20;99.90
33328;DHT22;19692;52.998;9.116;2023-10-31T04:32:11;12.20;99.90
33328;DHT22;19692;52.998;9.116;2023-10-31T04:34:37;12.20;99.90
33328;DHT22;19692;52.998;9.116;2023-10-31T04:37:03;12.20;99.90
33328;DHT22;19692;52.998;9.116;2023-10-31T04:39:29;12.20;99.90
33328;DHT22;19692;52.998;9.116;2023-10-31T04:41:55;12.20;99.90
33328;DHT22;19692;52.998;9.116;2023-10-31T04:44:21;12.20;99.90
33328;DHT22;19692;52.998;9.116;2023-10-31T04:46:46;12.20;99.90
33328;DHT22;19692;52.998;9.116;2023-10-31T04:49:12;12.20;99.90
33328;DHT22;19692;52.998;9.116;2023-10-31T04:51:38;12.20;99.90
33328;DHT22;19692;52.998;9.116;2023-10-31T04:54:05;12.20;99.90
33328;DHT22;19692;52.998;9.116;2023-10-31T04:56:31;12.20;99.90
33328;DHT22;19692;52.998;9.116;2023-10-31T04:58:56;12.20;99.90
33328;DHT22;19692;52.998;9.116;2023-10-31T05:01:22;12.20;99.90
33328;DHT22;19692;52.998;9.116;2023-10-31T05:03:49;12.20;99.90
33328;DHT22;19692;52.998;9.116;2023-10-31T05:06:19;12.20;99.90
33328;DHT22;19692;52.998;9.116;2023-10-31T05:08:46;12.20;99.90
33328;DHT22;19692;52.998;9.116;2023-10-31T05:11:16;12.10;99.90
33328;DHT22;19692;52.998;9.116;2023-10-31T05:13:42;12.20;99.90
33328;DHT22;19692;52.998;9.116;2023-10-31T05:16:08;12.10;99.90
33328;DHT22;19692;52.998;9.116;2023-10-31T05:18:36;12.10;99.90
33328;DHT22;19692;52.998;9.116;2023-10-31T05:21:02;12.10;99.90
33328;DHT22;19692;52.998;9.116;2023-10-31T05:23:28;12.10;99.90
33328;DHT22;19692;52.998;9.116;2023-10-31T05:25:54;12.10;99.90
33328;DHT22;19692;52.998;9.116;2023-10-31T05:28:21;11.90;99.90
33328;DHT22;19692;52.998;9.116;2023-10-31T05:30:46;11.80;99.90
33328;DHT22;19692;52.998;9.116;2023-10-31T05:33:17;11.70;99.90
33328;DHT22;19692;52.998;9.116;2023-10-31T05:35:43;11.70;99.90
33328;DHT22;19692;52.998;9.116;2023-10-31T05:38:09;11.60;99.90
33328;DHT22;19692;52.998;9.116;2023-10-31T05:40:34;11.50;99.90
33328;DHT22;19692;52.998;9.116;2023-10-31T05:43:01;11.40;99.90
33328;DHT22;19692;52.998;9.116;2023-10-31T05:45:28;11.20;99.90
33328;DHT22;19692;52.998;9.116;2023-10-31T05:47:54;11.10;99.90
33328;DHT22;19692;52.998;9.116;2023-10-31T05:50:19;11.10;99.90
33328;DHT22;19692;52.998;9.116;2023-10-31T05:52:46;11.00;99.90
33328;DHT22;19692;52.998;9.116;2023-10-31T05:55:13;11.00;99.90
33328;DHT22;19692;52.998;9.116;2023-10-31T05:57:39;11.00;99.90
33328;DHT22;19692;52.998;9.116;2023-10-31T06:00:05;11.00;99.90
33328;DHT22;19692;52.998;9.116;2023-10-31T06:02:32;10.90;99.90
33328;DHT22;19692;52.998;9.116;2023-10-31T06:04:58;10.90;99.90
33328;DHT22;19692;52.998;9.116;2023-10-31T06:07:23;10.90;99.90
33328;DHT22;19692;52.998;9.116;2023-10-31T06:09:51;10.90;99.90
33328;DHT22;19692;52.998;9.116;2023-10-31T06:12:17;10.80;99.90
33328;DHT22;19692;52.998;9.116;2023-10-31T06:14:43;10.70;99.90
33328;DHT22;19692;52.998;9.116;2023-10-31T06:17:09;10.60;99.90
33328;DHT22;19692;52.998;9.116;2023-10-31T06:19:36;10.60;99.90
33328;DHT22;19692;52.998;9.116;2023-10-31T06:22:02;10.60;99.90
33328;DHT22;19692;52.998;9.116;2023-10-31T06:24:28;10.60;99.90
33328;DHT22;19692;52.998;9.116;2023-10-31T06:26:53;10.50;99.90
33328;DHT22;19692;52.998;9.116;2023-10-31T06:29:19;10.50;99.90
33328;DHT22;19692;52.998;9.116;2023-10-31T06:31:45;10.40;99.90
33328;DHT22;19692;52.998;9.116;2023-10-31T06:34:11;10.40;99.90
33328;DHT22;19692;52.998;9.116;2023-10-31T06:36:37;10.40;99.90
33328;DHT22;19692;52.998;9.116;2023-10-31T06:39:02;10.40;99.90
33328;DHT22;19692;52.998;9.116;2023-10-31T06:41:28;10.40;99.90
33328;DHT22;19692;52.998;9.116;2023-10-31T06:43:54;10.30;99.90
33328;DHT22;19692;52.998;9.116;2023-10-31T06:46:20;10.20;99.90
33328;DHT22;19692;52.998;9.116;2023-10-31T06:48:45;10.30;99.90
33328;DHT22;19692;52.998;9.116;2023-10-31T06:51:11;10.30;99.90
33328;DHT22;19692;52.998;9.116;2023-10-31T06:53:37;10.20;99.90
33328;DHT22;19692;52.998;9.116;2023-10-31T06:56:03;10.20;99.90
33328;DHT22;19692;52.998;9.116;2023-10-31T06:58:29;10.20;99.90
33328;DHT22;19692;52.998;9.116;2023-10-31T07:00:54;10.20;99.90
33328;DHT22;19692;52.998;9.116;2023-10-31T07:03:23;10.20;99.90
33328;DHT22;19692;52.998;9.116;2023-10-31T07:05:49;10.20;99.90
33328;DHT22;19692;52.998;9.116;2023-10-31T07:08:18;10.10;99.90
33328;DHT22;19692;52.998;9.116;2023-10-31T07:10:44;10.20;99.90
33328;DHT22;19692;52.998;9.116;2023-10-31T07:13:09;10.20;99.90
33328;DHT22;19692;52.998;9.116;2023-10-31T07:15:35;10.20;99.90
33328;DHT22;19692;52.998;9.116;2023-10-31T07:18:05;10.20;99.90
33328;DHT22;19692;52.998;9.116;2023-10-31T07:20:33;10.20;99.90
33328;DHT22;19692;52.998;9.116;2023-10-31T07:22:59;10.20;99.90
33328;DHT22;19692;52.998;9.116;2023-10-31T07:25:25;10.20;99.90
33328;DHT22;19692;52.998;9.116;2023-10-31T07:27:50;10.20;99.90
33328;DHT22;19692;52.998;9.116;2023-10-31T07:30:16;10.30;99.90
33328;DHT22;19692;52.998;9.116;2023-10-31T07:32:42;10.30;99.90
33328;DHT22;19692;52.998;9.116;2023-10-31T07:35:08;10.30;99.90
33328;DHT22;19692;52.998;9.116;2023-10-31T07:37:34;10.30;99.90
33328;DHT22;19692;52.998;9.116;2023-10-31T07:39:59;10.40;99.90
33328;DHT22;19692;52.998;9.116;2023-10-31T07:42:25;10.40;99.90
33328;DHT22;19692;52.998;9.116;2023-10-31T07:44:59;10.40;99.90
33328;DHT22;19692;52.998;9.116;2023-10-31T07:47:24;10.40;99.90
33328;DHT22;19692;52.998;9.116;2023-10-31T07:49:50;10.50;99.90
33328;DHT22;19692;52.998;9.116;2023-10-31T07:52:16;10.50;99.90
33328;DHT22;19692;52.998;9.116;2023-10-31T07:54:41;10.40;99.90
33328;DHT22;19692;52.998;9.116;2023-10-31T07:57:07;10.40;99.90
33328;DHT22;19692;52.998;9.116;2023-10-31T07:59:34;10.50;99.90
33328;DHT22;19692;52.998;9.116;2023-10-31T08:02:00;10.50;99.90
33328;DHT22;19692;52.998;9.116;2023-10-31T08:04:26;10.50;99.90
33328;DHT22;19692;52.998;9.116;2023-10-31T08:06:56;10.50;99.90
33328;DHT22;19692;52.998;9.116;2023-10-31T08:09:22;10.50;99.90
33328;DHT22;19692;52.998;9.116;2023-10-31T08:11:47;10.60;99.90
33328;DHT22;19692;52.998;9.116;2023-10-31T08:14:13;10.60;99.90
33328;DHT22;19692;52.998;9.116;2023-10-31T08:16:41;10.60;99.90
33328;DHT22;19692;52.998;9.116;2023-10-31T08:19:07;10.60;99.90
33328;DHT22;19692;52.998;9.116;2023-10-31T08:21:33;10.70;99.90
33328;DHT22;19692;52.998;9.116;2023-10-31T08:24:04;10.70;99.90
33328;DHT22;19692;52.998;9.116;2023-10-31T08:26:31;10.80;99.90
33328;DHT22;19692;52.998;9.116;2023-10-31T08:28:57;10.70;99.90
33328;DHT22;19692;52.998;9.116;2023-10-31T08:31:23;10.70;99.90
33328;DHT22;19692;52.998;9.116;2023-10-31T08:33:49;10.70;99.90
33328;DHT22;19692;52.998;9.116;2023-10-31T08:36:14;10.70;99.90
33328;DHT22;19692;52.998;9.116;2023-10-31T08:38:40;10.70;99.90
33328;DHT22;19692;52.998;9.116;2023-10-31T08:41:09;10.70;99.90
33328;DHT22;19692;52.998;9.116;2023-10-31T08:43:36;10.70;99.90
33328;DHT22;19692;52.998;9.116;2023-10-31T08:46:02;10.70;99.90
33328;DHT22;19692;52.998;9.116;2023-10-31T08:48:27;10.70;99.90
33328;DHT22;19692;52.998;9.116;2023-10-31T08:50:53;10.70;99.90
33328;DHT22;19692;52.998;9.116;2023-10-31T08:53:19;10.80;99.90
33328;DHT22;19692;52.998;9.116;2023-10-31T08:55:47;10.80;99.90
33328;DHT22;19692;52.998;9.116;2023-10-31T08:58:14;10.80;99.90
33328;DHT22;19692;52.998;9.116;2023-10-31T09:00:40;10.90;99.90
33328;DHT22;19692;52.998;9.116;2023-10-31T09:03:06;10.80;99.90
33328;DHT22;19692;52.998;9.116;2023-10-31T09:05:33;10.80;99.90
33328;DHT22;19692;52.998;9.116;2023-10-31T09:07:59;10.80;99.90
33328;DHT22;19692;52.998;9.116;2023-10-31T09:10:25;10.70;99.90
33328;DHT22;19692;52.998;9.116;2023-10-31T09:12:50;10.70;99.90
33328;DHT22;19692;52.998;9.116;2023-10-31T09:15:16;10.70;99.90
33328;DHT22;19692;52.998;9.116;2023-10-31T09:17:42;10.80;99.90
33328;DHT22;19692;52.998;9.116;2023-10-31T09:20:08;10.90;99.90
33328;DHT22;19692;52.998;9.116;2023-10-31T09:22:34;10.80;99.90
33328;DHT22;19692;52.998;9.116;2023-10-31T09:25:00;10.70;99.90
33328;DHT22;19692;52.998;9.116;2023-10-31T09:27:28;10.70;99.90
33328;DHT22;19692;52.998;9.116;2023-10-31T09:29:53;10.70;99.90
33328;DHT22;19692;52.998;9.116;2023-10-31T09:32:19;10.70;99.90
33328;DHT22;19692;52.998;9.116;2023-10-31T09:34:45;10.70;99.90
33328;DHT22;19692;52.998;9.116;2023-10-31T09:37:11;10.80;99.90
33328;DHT22;19692;52.998;9.116;2023-10-31T09:39:36;10.90;99.90
33328;DHT22;19692;52.998;9.116;2023-10-31T09:42:03;11.00;99.90
33328;DHT22;19692;52.998;9.116;2023-10-31T09:44:29;11.10;99.90
33328;DHT22;19692;52.998;9.116;2023-10-31T09:46:55;11.10;99.90
33328;DHT22;19692;52.998;9.116;2023-10-31T09:49:22;11.10;99.90
33328;DHT22;19692;52.998;9.116;2023-10-31T09:51:48;11.10;99.90
33328;DHT22;19692;52.998;9.116;2023-10-31T09:54:16;11.20;99.90
33328;DHT22;19692;52.998;9.116;2023-10-31T09:56:42;11.20;99.90
33328;DHT22;19692;52.998;9.116;2023-10-31T09:59:09;11.20;99.90
33328;DHT22;19692;52.998;9.116;2023-10-31T10:01:35;11.20;99.90
33328;DHT22;19692;52.998;9.116;2023-10-31T10:04:01;11.20;99.90
33328;DHT22;19692;52.998;9.116;2023-10-31T10:06:27;11.10;99.90
33328;DHT22;19692;52.998;9.116;2023-10-31T10:08:55;11.10;99.90
33328;DHT22;19692;52.998;9.116;2023-10-31T10:11:24;11.00;99.90
33328;DHT22;19692;52.998;9.116;2023-10-31T10:13:53;11.10;99.90
33328;DHT22;19692;52.998;9.116;2023-10-31T10:16:30;11.10;99.90
33328;DHT22;19692;52.998;9.116;2023-10-31T10:18:57;11.10;99.90
33328;DHT22;19692;52.998;9.116;2023-10-31T10:21:22;11.20;99.90
33328;DHT22;19692;52.998;9.116;2023-10-31T10:23:51;11.20;99.90
33328;DHT22;19692;52.998;9.116;2023-10-31T10:26:17;11.20;99.90
33328;DHT22;19692;52.998;9.116;2023-10-31T10:28:47;11.20;99.90
33328;DHT22;19692;52.998;9.116;2023-10-31T10:31:15;11.20;99.90
33328;DHT22;19692;52.998;9.116;2023-10-31T10:33:41;11.20;99.90
33328;DHT22;19692;52.998;9.116;2023-10-31T10:36:09;11.20;99.90
33328;DHT22;19692;52.998;9.116;2023-10-31T10:38:36;11.10;99.90
33328;DHT22;19692;52.998;9.116;2023-10-31T10:41:05;11.10;99.90
33328;DHT22;19692;52.998;9.116;2023-10-31T10:43:36;11.10;99.90
33328;DHT22;19692;52.998;9.116;2023-10-31T10:46:04;11.20;99.90
33328;DHT22;19692;52.998;9.116;2023-10-31T10:48:32;11.30;99.90
33328;DHT22;19692;52.998;9.116;2023-10-31T10:51:07;11.40;99.90
33328;DHT22;19692;52.998;9.116;2023-10-31T10:53:48;11.50;99.90
33328;DHT22;19692;52.998;9.116;2023-10-31T10:56:35;11.60;99.90
33328;DHT22;19692;52.998;9.116;2023-10-31T10:59:19;11.70;99.90
33328;DHT22;19692;52.998;9.116;2023-10-31T11:01:46;11.90;99.90
33328;DHT22;19692;52.998;9.116;2023-10-31T11:04:14;12.00;99.90
33328;DHT22;19692;52.998;9.116;2023-10-31T11:06:41;12.00;99.90
33328;DHT22;19692;52.998;9.116;2023-10-31T11:09:09;12.10;99.90
33328;DHT22;19692;52.998;9.116;2023-10-31T11:11:38;12.10;99.90
33328;DHT22;19692;52.998;9.116;2023-10-31T11:14:05;12.10;99.90
33328;DHT22;19692;52.998;9.116;2023-10-31T11:16:44;12.10;99.90
33328;DHT22;19692;52.998;9.116;2023-10-31T11:19:14;12.10;99.90
33328;DHT22;19692;52.998;9.116;2023-10-31T11:22:13;12.20;99.90
33328;DHT22;19692;52.998;9.116;2023-10-31T11:24:39;12.10;99.90
33328;DHT22;19692;52.998;9.116;2023-10-31T11:27:07;12.10;99.90
33328;DHT22;19692;52.998;9.116;2023-10-31T11:29:33;12.10;99.90
33328;DHT22;19692;52.998;9.116;2023-10-31T11:32:01;12.10;99.90
33328;DHT22;19692;52.998;9.116;2023-10-31T11:34:27;12.00;99.90
33328;DHT22;19692;52.998;9.116;2023-10-31T11:36:53;11.90;99.90
33328;DHT22;19692;52.998;9.116;2023-10-31T11:40:24;11.60;99.90
33328;DHT22;19692;52.998;9.116;2023-10-31T11:42:52;11.50;99.90
33328;DHT22;19692;52.998;9.116;2023-10-31T11:45:34;11.50;99.90
33328;DHT22;19692;52.998;9.116;2023-10-31T11:48:03;11.40;99.90
33328;DHT22;19692;52.998;9.116;2023-10-31T11:50:33;11.50;99.90
33328;DHT22;19692;52.998;9.116;2023-10-31T11:55:34;11.60;99.90
33328;DHT22;19692;52.998;9.116;2023-10-31T11:58:17;11.60;99.90
33328;DHT22;19692;52.998;9.116;2023-10-31T12:01:06;11.70;99.90
33328;DHT22;19692;52.998;9.116;2023-10-31T12:03:43;11.70;99.90
33328;DHT22;19692;52.998;9.116;2023-10-31T12:06:13;11.70;99.90
33328;DHT22;19692;52.998;9.116;2023-10-31T12:08:41;11.60;99.90
33328;DHT22;19692;52.998;9.116;2023-10-31T12:11:15;11.60;99.90
33328;DHT22;19692;52.998;9.116;2023-10-31T12:16:18;11.60;99.90
33328;DHT22;19692;52.998;9.116;2023-10-31T12:18:44;11.60;99.90
33328;DHT22;19692;52.998;9.116;2023-10-31T12:21:10;11.50;99.90
33328;DHT22;19692;52.998;9.116;2023-10-31T12:23:39;11.60;99.90
33328;DHT22;19692;52.998;9.116;2023-10-31T12:26:05;11.50;99.90
33328;DHT22;19692;52.998;9.116;2023-10-31T12:28:31;11.50;99.90
33328;DHT22;19692;52.998;9.116;2023-10-31T12:30:58;11.50;99.90
33328;DHT22;19692;52.998;9.116;2023-10-31T12:33:27;11.60;99.90
33328;DHT22;19692;52.998;9.116;2023-10-31T12:35:58;11.80;99.90
33328;DHT22;19692;52.998;9.116;2023-10-31T12:38:24;11.80;99.90
33328;DHT22;19692;52.998;9.116;2023-10-31T12:40:51;12.00;99.90
33328;DHT22;19692;52.998;9.116;2023-10-31T12:43:18;12.20;99.90
33328;DHT22;19692;52.998;9.116;2023-10-31T12:45:43;12.20;99.90
33328;DHT22;19692;52.998;9.116;2023-10-31T12:48:10;12.20;99.90
33328;DHT22;19692;52.998;9.116;2023-10-31T12:50:38;12.30;99.90
33328;DHT22;19692;52.998;9.116;2023-10-31T12:53:08;12.30;99.90
33328;DHT22;19692;52.998;9.116;2023-10-31T12:55:41;12.20;99.90
33328;DHT22;19692;52.998;9.116;2023-10-31T12:58:08;12.20;99.90
33328;DHT22;19692;52.998;9.116;2023-10-31T13:00:36;12.10;99.90
33328;DHT22;19692;52.998;9.116;2023-10-31T13:03:05;12.10;99.90
33328;DHT22;19692;52.998;9.116;2023-10-31T13:05:33;12.00;99.90
33328;DHT22;19692;52.998;9.116;2023-10-31T13:08:00;12.00;99.90
33328;DHT22;19692;52.998;9.116;2023-10-31T13:10:28;12.00;99.90
33328;DHT22;19692;52.998;9.116;2023-10-31T13:12:55;12.10;99.90
33328;DHT22;19692;52.998;9.116;2023-10-31T13:15:23;12.20;99.90
33328;DHT22;19692;52.998;9.116;2023-10-31T13:17:50;11.90;99.90
33328;DHT22;19692;52.998;9.116;2023-10-31T13:20:20;11.60;99.90
33328;DHT22;19692;52.998;9.116;2023-10-31T13:22:46;11.40;99.90
33328;DHT22;19692;52.998;9.116;2023-10-31T13:25:14;11.30;99.90
33328;DHT22;19692;52.998;9.116;2023-10-31T13:27:42;11.10;99.90
33328;DHT22;19692;52.998;9.116;2023-10-31T13:30:10;11.00;99.90
33328;DHT22;19692;52.998;9.116;2023-10-31T13:32:37;11.00;99.90
33328;DHT22;19692;52.998;9.116;2023-10-31T13:35:07;10.80;99.90
33328;DHT22;19692;52.998;9.116;2023-10-31T13:37:35;10.80;99.90
33328;DHT22;19692;52.998;9.116;2023-10-31T13:40:01;10.60;99.90
33328;DHT22;19692;52.998;9.116;2023-10-31T13:42:27;10.40;99.90
33328;DHT22;19692;52.998;9.116;2023-10-31T13:44:53;10.40;99.90
33328;DHT22;19692;52.998;9.116;2023-10-31T13:47:19;10.40;99.90
33328;DHT22;19692;52.998;9.116;2023-10-31T13:49:45;10.30;99.90
33328;DHT22;19692;52.998;9.116;2023-10-31T13:52:11;10.20;99.90
33328;DHT22;19692;52.998;9.116;2023-10-31T13:54:37;10.20;99.90
33328;DHT22;19692;52.998;9.116;2023-10-31T13:57:03;10.10;99.90
33328;DHT22;19692;52.998;9.116;2023-10-31T13:59:29;10.10;99.90
33328;DHT22;19692;52.998;9.116;2023-10-31T14:01:55;10.10;99.90
33328;DHT22;19692;52.998;9.116;2023-10-31T14:04:21;10.10;99.90
33328;DHT22;19692;52.998;9.116;2023-10-31T14:06:46;10.10;99.90
33328;DHT22;19692;52.998;9.116;2023-10-31T14:09:13;10.10;99.90
33328;DHT22;19692;52.998;9.116;2023-10-31T14:11:40;10.00;99.90
33328;DHT22;19692;52.998;9.116;2023-10-31T14:14:06;10.00;99.90
33328;DHT22;19692;52.998;9.116;2023-10-31T14:16:36;10.00;99.90
33328;DHT22;19692;52.998;9.116;2023-10-31T14:19:04;9.90;99.90
33328;DHT22;19692;52.998;9.116;2023-10-31T14:21:31;9.90;99.90
33328;DHT22;19692;52.998;9.116;2023-10-31T14:23:56;9.90;99.90
33328;DHT22;19692;52.998;9.116;2023-10-31T14:26:23;9.90;99.90
33328;DHT22;19692;52.998;9.116;2023-10-31T14:28:49;9.90;99.90
33328;DHT22;19692;52.998;9.116;2023-10-31T14:31:16;9.80;99.90
33328;DHT22;19692;52.998;9.116;2023-10-31T14:33:42;9.80;99.90
33328;DHT22;19692;52.998;9.116;2023-10-31T14:36:09;10.00;99.90
33328;DHT22;19692;52.998;9.116;2023-10-31T14:38:37;10.20;99.90
33328;DHT22;19692;52.998;9.116;2023-10-31T14:41:03;10.50;99.90
33328;DHT22;19692;52.998;9.116;2023-10-31T14:43:29;10.30;99.90
33328;DHT22;19692;52.998;9.116;2023-10-31T14:45:56;10.10;99.90
33328;DHT22;19692;52.998;9.116;2023-10-31T14:48:22;10.00;99.90
33328;DHT22;19692;52.998;9.116;2023-10-31T14:50:48;9.80;99.90
33328;DHT22;19692;52.998;9.116;2023-10-31T14:53:18;9.70;99.90
33328;DHT22;19692;52.998;9.116;2023-10-31T14:55:47;9.60;99.90
33328;DHT22;19692;52.998;9.116;2023-10-31T14:58:13;9.50;99.90
33328;DHT22;19692;52.998;9.116;2023-10-31T15:00:39;9.40;99.90
33328;DHT22;19692;52.998;9.116;2023-10-31T15:03:05;9.30;99.90
33328;DHT22;19692;52.998;9.116;2023-10-31T15:05:31;9.40;99.90
33328;DHT22;19692;52.998;9.116;2023-10-31T15:07:57;9.40;99.90
33328;DHT22;19692;52.998;9.116;2023-10-31T15:10:24;9.50;99.90
33328;DHT22;19692;52.998;9.116;2023-10-31T15:12:51;9.60;99.90
33328;DHT22;19692;52.998;9.116;2023-10-31T15:15:18;9.60;99.90
33328;DHT22;19692;52.998;9.116;2023-10-31T15:17:44;9.50;99.90
33328;DHT22;19692;52.998;9.116;2023-10-31T15:20:10;9.40;99.90
33328;DHT22;19692;52.998;9.116;2023-10-31T15:22:39;9.40;99.90
33328;DHT22;19692;52.998;9.116;2023-10-31T15:25:05;9.30;99.90
33328;DHT22;19692;52.998;9.116;2023-10-31T15:27:32;9.30;99.90
33328;DHT22;19692;52.998;9.116;2023-10-31T15:29:57;9.40;99.90
33328;DHT22;19692;52.998;9.116;2023-10-31T15:32:24;9.30;99.90
33328;DHT22;19692;52.998;9.116;2023-10-31T15:34:49;9.30;99.90
33328;DHT22;19692;52.998;9.116;2023-10-31T15:37:15;9.20;99.90